»·PEaware :: N1399 KMHR-KHAF

N1399 :: KMHR-KHAF

FLIGHT INFORMATION

Flight Status: Arrived
Operator: Privately registered:
United States
More flights under this callsign
Pilot: David C. (16084)
Aircraft: PIPER PA-31T-620 CHEYENNE 2
(PAY2)
More flights by this aircraft type
Origin: KMHR Mather
United States
Destination: KHAF Half Moon Bay
United States
More flights between these airports :: More routes between these airports
Route: SAC V334A SUNOL
File this flight plan on PilotEdge
Remarks:
Altitude:
(Current/Filed)
7,000ft
Speed:
(Current/Filed)
258kts
Departed: 13-Jan-21 01:06 PM
Arrived: 13-Jan-21 01:42 PM
Distance/Time
Traveled:
84nm/0:36
Distance/Time
To Go:
Arrived

Flight Plot

Page will automatically refresh every two minutes.

Flight plan parsing failed; only flown route is shown


Map Options




Map Legend


Flown Route
Filed Route
Departure Airport
Arrival Airport
Navaid (VOR, NDB)
Fix

Horizontal Profiles

Position Reports

Time Latitude Longitude Heading Altitude Ground
Speed
13-Jan-21 12:51 38.562568 -121.296466 264 102ft 0kts
13-Jan-21 12:52 38.562568 -121.296466 264 102ft 0kts
13-Jan-21 12:53 38.562568 -121.296466 264 102ft 0kts
13-Jan-21 12:54 38.562568 -121.296466 264 102ft 0kts
13-Jan-21 12:55 38.562568 -121.296466 264 102ft 0kts
13-Jan-21 12:56 38.562568 -121.296466 264 102ft 0kts
13-Jan-21 12:57 38.562568 -121.296466 264 102ft 0kts
13-Jan-21 12:58 38.562568 -121.296466 264 102ft 0kts
13-Jan-21 12:59 38.562568 -121.296466 264 102ft 0kts
13-Jan-21 13:00 38.562568 -121.296466 264 102ft 0kts
13-Jan-21 13:01 38.562438 -121.296787 207 102ft 7kts
13-Jan-21 13:02 38.561590 -121.294802 53 102ft 15kts
13-Jan-21 13:03 38.564212 -121.289316 144 102ft 13kts
13-Jan-21 13:04 38.562677 -121.288243 222 102ft 11kts
13-Jan-21 13:05 38.545951 -121.321091 240 1205ft 172kts
13-Jan-21 13:06 38.520533 -121.376684 239 3421ft 195kts
13-Jan-21 13:07 38.493667 -121.437968 239 5430ft 198kts
13-Jan-21 13:08 38.465634 -121.501901 239 6709ft 229kts
13-Jan-21 13:09 38.416374 -121.560165 196 6542ft 272kts
13-Jan-21 13:10 38.344938 -121.582336 197 6494ft 256kts
13-Jan-21 13:11 38.277116 -121.603505 196 6503ft 247kts
13-Jan-21 13:12 38.211871 -121.623809 197 6960ft 243kts
13-Jan-21 13:13 38.144474 -121.644730 197 7003ft 254kts
13-Jan-21 13:14 38.075277 -121.666132 196 7006ft 256kts
13-Jan-21 13:15 38.006223 -121.687425 196 7005ft 256kts
13-Jan-21 13:16 37.937049 -121.708799 196 7013ft 255kts
13-Jan-21 13:17 37.868654 -121.729796 196 7014ft 257kts
13-Jan-21 13:18 37.798698 -121.751330 196 7014ft 261kts
13-Jan-21 13:19 37.727427 -121.773150 195 7014ft 265kts
13-Jan-21 13:20 37.657446 -121.794493 195 6987ft 253kts
13-Jan-21 13:21 37.605114 -121.840649 250 6989ft 247kts
13-Jan-21 13:22 37.590512 -121.925919 259 6987ft 248kts
13-Jan-21 13:23 37.579070 -122.012157 260 6997ft 248kts
13-Jan-21 13:24 37.523614 -122.048633 188 7002ft 256kts
13-Jan-21 13:25 37.451649 -122.057437 187 7009ft 263kts
13-Jan-21 13:26 37.378232 -122.067358 187 7013ft 267kts
13-Jan-21 13:27 37.304251 -122.077214 187 7014ft 267kts
13-Jan-21 13:28 37.234514 -122.086707 187 6507ft 220kts
13-Jan-21 13:29 37.176149 -122.094511 187 5106ft 206kts
13-Jan-21 13:30 37.141378 -122.130656 298 4998ft 192kts
13-Jan-21 13:31 37.183160 -122.170716 319 5006ft 192kts
13-Jan-21 13:32 37.225935 -122.206549 328 4601ft 180kts
13-Jan-21 13:33 37.268604 -122.239644 329 4104ft 181kts
13-Jan-21 13:34 37.311887 -122.273318 329 3814ft 190kts
13-Jan-21 13:35 37.354232 -122.314270 317 3660ft 190kts
13-Jan-21 13:36 37.391198 -122.358137 318 3302ft 183kts
13-Jan-21 13:37 37.427619 -122.400565 317 2590ft 156kts
13-Jan-21 13:38 37.456785 -122.434762 318 1717ft 141kts
13-Jan-21 13:39 37.483990 -122.466625 318 874ft 123kts
13-Jan-21 13:40 37.505816 -122.492256 317 166ft 105kts
13-Jan-21 13:42 37.518487 -122.506778 10 70ft 14kts
13-Jan-21 13:43 37.517956 -122.503890 137 62ft 10kts
13-Jan-21 13:44 37.515359 -122.499406 125 51ft 16kts
13-Jan-21 13:45 37.514264 -122.496069 120 56ft 8kts
13-Jan-21 13:46 37.513762 -122.495493 123 56ft 0kts

Navigation Log

Ident Type
Flight plan parsing failed, navigation log unavailable